メインページ
METAR-TAF:

METAR-TAF

空港 :

アテネ, ギリシャ

アテネ国際空港

緯度: 37-56N, 経度: 023-56E, 海抜: 94m

現時点の気象観測

当レポートは32分前の18:50(UTC)に作成
の風 3kt
気温 10°C
湿度 71%
気圧 1007 hPa
視程10km以上
高度2000ftの雲はほとんどない
高度3000ftの千切れ雲あり

METAR: LGAV 251850Z 36003KT 9999 FEW020 BKN030 10/05 Q1007 NOSIG

時間: 21:22 (19:22 UTC)

予報

当レポートは2時間22分前の17:00(UTC)に作成
予報は25日の 18時(UTC)から 26日の 18時(UTC)まで有効
東/南東の風 10kt
視程10km以上
高度2000ftの雲はほとんどない
高度6000ftの曇り
確率 40% :
25日の 18時(UTC)から 26日の 09時(UTC)まで一時的に
視程: 5000m
高度1200ftの雲は散在している
高度6000ftの曇り
確率 40% :
26日の 00時(UTC)から 26日の 09時(UTC)まで一時的に
視程: 3000m
高度1200ftの雲は散在している
高度1800ftの雲はほとんどない, 積乱雲.
高度2000ftの千切れ雲あり
高度6000ftの曇り
激しい雷雨, 雨
26日の 00時(UTC)から 26日の 02時(UTC)まで徐々に
の風 15kt
26日の 03時(UTC)から 26日の 06時(UTC)まで一時的に
の風 15kt、最大25ktの突風を伴う
26日の 07時(UTC)から 26日の 09時(UTC)まで徐々に
西/南西の風 13kt
26日の 10時(UTC)から 26日の 12時(UTC)まで徐々に
高度1800ftの雲は散在している

TAF: LGAV 251700Z 2518/2618 11010KT 9999 FEW020 OVC060 PROB40 TEMPO 2518/2609 5000 RA SCT012 OVC060 PROB40 TEMPO 2600/2609 3000 TSRA SCT012 FEW018CB BKN020 OVC060 BECMG 2600/2602 18015KT TEMPO 2603/2606 18015G25KT BECMG 2607/2609 25013KT BECMG 2610/2612 SCT018

4,000以上の空港の気象観測と天気予報(METAR報とTAF報)

利用可能な観測所は地図上に黄色い丸と赤い丸で示す。

丸の上にカーソルを重ねると観測所名を参照できる。

次にクリックすると気象観測と天気予報を参照できる。

マップの切り替え:黒色「×」印の緑ボタンをクリックして拡大、「-」印の緑ボタンをクリックして縮小、緑色の三角印をクリックして隣りの地図に切り替え


METAR-TAF: